createdAt,value
2019-02-20T00:04:47.013Z,3.5
2019-02-20T00:09:49.534Z,3.5
2019-02-20T00:14:52.107Z,3.5
2019-02-20T00:19:54.443Z,3.5
2019-02-20T00:24:56.866Z,3.4
2019-02-20T00:29:59.332Z,3.3
2019-02-20T00:35:01.842Z,3.2
2019-02-20T00:40:04.244Z,3.2
2019-02-20T00:45:06.750Z,3.1
2019-02-20T00:50:09.290Z,3.1
2019-02-20T00:55:11.639Z,3.1
2019-02-20T01:00:14.114Z,3.1
2019-02-20T01:05:16.605Z,3.1
2019-02-20T01:10:19.114Z,3.1
2019-02-20T01:15:21.551Z,3.1
2019-02-20T01:20:23.994Z,3.1
2019-02-20T01:25:26.458Z,3.1
2019-02-20T01:30:28.914Z,3
2019-02-20T01:35:31.490Z,3
2019-02-20T01:40:33.924Z,3.1
2019-02-20T01:45:36.286Z,3.2
2019-02-20T01:50:39.080Z,3.3
2019-02-20T01:55:41.249Z,3.3
2019-02-20T02:00:43.694Z,3.3
2019-02-20T02:05:46.293Z,3.2
2019-02-20T02:10:48.692Z,3.1
2019-02-20T02:15:51.087Z,3.1
2019-02-20T02:20:53.564Z,3
2019-02-20T02:25:56.006Z,3
2019-02-20T02:30:58.543Z,3
2019-02-20T02:36:00.968Z,2.9
2019-02-20T02:41:03.413Z,2.8
2019-02-20T02:46:05.926Z,2.7
2019-02-20T02:51:08.349Z,2.7
2019-02-20T02:56:10.806Z,2.7
2019-02-20T03:01:13.428Z,2.7
2019-02-20T03:06:15.755Z,2.7
2019-02-20T03:11:18.213Z,2.7
2019-02-20T03:16:20.735Z,2.7
2019-02-20T03:21:23.127Z,2.7
2019-02-20T03:26:25.607Z,2.8
2019-02-20T03:31:28.099Z,2.8
2019-02-20T03:36:30.600Z,2.9
2019-02-20T03:41:33.000Z,2.9
2019-02-20T03:46:35.491Z,2.9
2019-02-20T03:51:37.952Z,2.9
2019-02-20T03:56:40.395Z,2.9
2019-02-20T04:01:42.856Z,2.8
2019-02-20T04:06:45.330Z,2.8
2019-02-20T04:11:47.878Z,2.8
2019-02-20T04:16:50.258Z,2.8
2019-02-20T04:21:52.769Z,2.9
2019-02-20T04:26:55.171Z,3
2019-02-20T04:31:57.642Z,3.2
2019-02-20T04:37:00.259Z,3.3
2019-02-20T04:42:02.586Z,3.4
2019-02-20T04:47:05.040Z,3.4
2019-02-20T04:52:07.517Z,3.5
2019-02-20T04:57:10.016Z,3.6
2019-02-20T05:02:17.506Z,3.6
2019-02-20T05:07:15.258Z,3.6
2019-02-20T05:12:17.446Z,3.6
2019-02-20T05:17:19.827Z,3.6
2019-02-20T05:22:22.439Z,3.6
2019-02-20T05:27:24.745Z,3.7
2019-02-20T05:32:27.235Z,3.7
2019-02-20T05:37:29.697Z,3.8
2019-02-20T05:42:32.142Z,3.7
2019-02-20T05:47:34.616Z,3.8
2019-02-20T05:52:37.043Z,3.8
2019-02-20T05:57:39.504Z,3.8
2019-02-20T06:02:41.955Z,3.8
2019-02-20T06:07:44.444Z,3.9
2019-02-20T06:12:46.890Z,3.9
2019-02-20T06:17:49.351Z,3.9
2019-02-20T06:22:51.860Z,3.9
2019-02-20T06:27:54.293Z,4
2019-02-20T06:32:56.748Z,4
2019-02-20T06:37:59.248Z,4.1
2019-02-20T06:43:01.678Z,4.2
2019-02-20T06:48:04.122Z,4.2
2019-02-20T06:53:06.871Z,4.3
2019-02-20T06:58:09.043Z,4.3
2019-02-20T07:03:11.551Z,4.4
2019-02-20T07:08:13.959Z,4.4
2019-02-20T07:13:16.423Z,4.5
2019-02-20T07:18:18.873Z,4.5
2019-02-20T07:23:21.307Z,4.6
2019-02-20T07:28:23.804Z,4.6
2019-02-20T07:33:26.235Z,4.7
2019-02-20T07:38:28.685Z,4.7
2019-02-20T07:43:31.206Z,4.8
2019-02-20T07:48:33.604Z,5
2019-02-20T07:53:36.044Z,5.2
2019-02-20T07:58:38.649Z,5.4
2019-02-20T08:03:40.980Z,5.7
2019-02-20T08:08:43.462Z,6.1
2019-02-20T08:13:45.894Z,6.6
2019-02-20T08:18:48.372Z,7
2019-02-20T08:23:50.863Z,7
2019-02-20T08:28:53.245Z,6.9
2019-02-20T08:33:55.736Z,7.4
2019-02-20T08:38:58.227Z,8.1
2019-02-20T08:44:00.643Z,9.4
2019-02-20T08:49:03.105Z,10.2
2019-02-20T08:54:05.592Z,10.2
2019-02-20T08:59:07.991Z,10.3
2019-02-20T09:04:10.444Z,10
2019-02-20T09:09:12.916Z,9.6
2019-02-20T09:14:15.362Z,9.3
2019-02-20T09:19:17.858Z,9.4
2019-02-20T09:24:20.291Z,10.3
2019-02-20T09:29:22.732Z,11
2019-02-20T09:34:25.207Z,11.5
2019-02-20T09:39:27.685Z,12.5
2019-02-20T09:44:30.109Z,13.9
2019-02-20T09:49:32.679Z,15.5
2019-02-20T09:54:35.020Z,16.5
2019-02-20T09:59:37.493Z,16.8
2019-02-20T10:04:39.961Z,17.7
2019-02-20T10:09:42.446Z,18.3
2019-02-20T10:14:45.198Z,18.1
2019-02-20T10:19:47.397Z,17
2019-02-20T10:24:49.783Z,16.4
2019-02-20T10:29:52.229Z,17.1
2019-02-20T10:34:54.680Z,17.8
2019-02-20T10:39:57.282Z,18
2019-02-20T10:44:59.615Z,18.7
2019-02-20T10:55:04.651Z,19.5
2019-02-20T11:00:12.013Z,18.9
2019-02-20T11:05:09.444Z,18.8
2019-02-20T11:10:11.930Z,18.7
2019-02-20T11:15:14.388Z,18.2
2019-02-20T11:20:16.871Z,17.9
2019-02-20T11:25:19.287Z,18.1
2019-02-20T11:30:21.768Z,17.3
2019-02-20T11:35:24.220Z,16.4
2019-02-20T11:40:26.653Z,16.2
2019-02-20T11:45:29.200Z,16.5
2019-02-20T11:50:31.579Z,16.6
2019-02-20T11:55:34.052Z,16.6
2019-02-20T12:00:36.539Z,16.9
2019-02-20T12:05:38.949Z,16.7
2019-02-20T12:10:41.441Z,15.6
2019-02-20T12:15:43.921Z,14.4
2019-02-20T12:20:46.391Z,14.2
2019-02-20T12:25:48.773Z,13.8
2019-02-20T12:30:51.234Z,13.7
2019-02-20T12:35:53.858Z,14.8
2019-02-20T12:40:56.152Z,15.1
2019-02-20T12:45:58.592Z,15.5
2019-02-20T12:51:01.055Z,16.8
2019-02-20T12:56:09.773Z,17.3
2019-02-20T13:01:05.959Z,17.1
2019-02-20T13:06:08.442Z,17.1
2019-02-20T13:11:11.012Z,17.4
2019-02-20T13:16:13.523Z,17.2
2019-02-20T13:21:15.851Z,15.6
2019-02-20T13:26:18.269Z,14.2
2019-02-20T13:31:20.737Z,13.5
2019-02-20T13:36:23.177Z,13.4
2019-02-20T13:41:25.830Z,13.3
2019-02-20T13:46:28.131Z,12.8
2019-02-20T13:51:30.545Z,12.1
2019-02-20T13:56:33.016Z,11.4
2019-02-20T14:01:35.464Z,11.1
2019-02-20T14:06:37.910Z,11.1
2019-02-20T14:11:40.422Z,11.2
2019-02-20T14:16:42.844Z,11.1
2019-02-20T14:21:45.309Z,11.3
2019-02-20T14:26:47.762Z,11.3
2019-02-20T14:31:50.280Z,11
2019-02-20T14:36:52.674Z,10.6
2019-02-20T14:41:55.125Z,10.1
2019-02-20T14:46:57.576Z,10
2019-02-20T14:52:00.036Z,9.7
2019-02-20T14:57:02.783Z,9.5
2019-02-20T15:02:04.968Z,9.4
2019-02-20T15:07:07.406Z,9.4
2019-02-20T15:12:09.872Z,9.3
2019-02-20T15:17:12.395Z,9.3
2019-02-20T15:22:14.799Z,9.4
2019-02-20T15:27:19.096Z,9.3
2019-02-20T15:32:19.802Z,9.2
2019-02-20T15:37:22.180Z,9.1
2019-02-20T15:42:24.622Z,8.9
2019-02-20T15:47:27.097Z,8.9
2019-02-20T15:52:29.552Z,8.8
2019-02-20T15:57:37.980Z,8.6
2019-02-20T16:02:34.550Z,8.5
2019-02-20T16:07:37.027Z,8.4
2019-02-20T16:12:39.364Z,8.3
2019-02-20T16:17:41.804Z,8.2
2019-02-20T16:22:44.574Z,8.2
2019-02-20T16:27:47.734Z,8.1
2019-02-20T16:32:51.109Z,8
2019-02-20T16:37:51.639Z,8
2019-02-20T16:42:54.097Z,7.9
2019-02-20T16:47:56.569Z,7.7
2019-02-20T16:52:59.021Z,7.6
2019-02-20T16:58:01.519Z,7.5
2019-02-20T17:03:03.940Z,7.3
2019-02-20T17:08:06.403Z,7.3
2019-02-20T17:13:08.848Z,7.1
2019-02-20T17:18:11.363Z,7
2019-02-20T17:23:13.841Z,7
2019-02-20T17:28:16.313Z,6.9
2019-02-20T17:33:18.693Z,6.8
2019-02-20T17:43:23.662Z,6.7
2019-02-20T17:48:26.063Z,6.6
2019-02-20T17:53:28.578Z,6.6
2019-02-20T17:58:31.068Z,6.6
2019-02-20T18:03:33.462Z,6.5
2019-02-20T18:08:35.891Z,6.5
2019-02-20T18:13:38.350Z,6.4
2019-02-20T18:18:40.810Z,6.4
2019-02-20T18:23:43.270Z,6.3
2019-02-20T18:28:45.777Z,6.3
2019-02-20T18:33:48.190Z,6.3
2019-02-20T18:38:50.683Z,6.3
2019-02-20T18:43:53.095Z,6.3
2019-02-20T18:48:55.545Z,6.2
2019-02-20T18:53:58.035Z,6.1
2019-02-20T18:59:00.475Z,6
2019-02-20T19:04:02.935Z,6
2019-02-20T19:09:05.391Z,5.9
2019-02-20T19:14:09.093Z,5.8
2019-02-20T19:19:10.389Z,5.7
2019-02-20T19:24:12.754Z,5.7
2019-02-20T19:29:15.315Z,5.7
2019-02-20T19:34:17.710Z,5.6
2019-02-20T19:39:20.211Z,5.5
2019-02-20T19:44:22.604Z,5.4
2019-02-20T19:49:25.042Z,5.3
2019-02-20T19:54:27.491Z,5.3
2019-02-20T19:59:29.985Z,5.3
2019-02-20T20:04:32.438Z,5.3
2019-02-20T20:09:34.873Z,5.4
2019-02-20T20:14:37.646Z,5.3
2019-02-20T20:19:39.858Z,5.4
2019-02-20T20:24:42.229Z,5.3
2019-02-20T20:29:44.735Z,5.3
2019-02-20T20:34:47.153Z,5.2
2019-02-20T20:39:49.607Z,5.2
2019-02-20T20:44:52.094Z,5.2
2019-02-20T20:49:54.501Z,5.2
2019-02-20T20:54:56.986Z,5.2
2019-02-20T20:59:59.446Z,5.2
2019-02-20T21:05:01.948Z,5.2
2019-02-20T21:10:04.367Z,5.2
2019-02-20T21:15:06.797Z,5.2
2019-02-20T21:20:09.251Z,5.1
2019-02-20T21:25:13.698Z,5
2019-02-20T21:30:14.218Z,4.9
2019-02-20T21:35:16.666Z,4.8
2019-02-20T21:40:19.093Z,4.8
2019-02-20T21:45:21.539Z,4.8
2019-02-20T21:50:24.011Z,4.8
2019-02-20T21:55:26.448Z,4.9
2019-02-20T22:00:28.943Z,4.9
2019-02-20T22:05:31.473Z,5
2019-02-20T22:10:33.868Z,4.9
2019-02-20T22:15:36.357Z,4.8
2019-02-20T22:20:39.713Z,4.7
2019-02-20T22:25:41.176Z,4.7
2019-02-20T22:30:43.659Z,4.5
2019-02-20T22:35:46.113Z,4.5
2019-02-20T22:40:48.555Z,4.4
2019-02-20T22:45:51.024Z,4.3
2019-02-20T22:50:53.509Z,4.2
2019-02-20T22:55:55.948Z,4.2
2019-02-20T23:00:58.456Z,4.2
2019-02-20T23:06:00.885Z,4.2
2019-02-20T23:11:03.321Z,4.3
2019-02-20T23:16:05.766Z,4.3
2019-02-20T23:21:08.245Z,4.4
2019-02-20T23:26:10.673Z,4.4
2019-02-20T23:31:13.146Z,4.3
2019-02-20T23:36:15.770Z,4.3
2019-02-20T23:41:18.062Z,4.3
2019-02-20T23:46:20.528Z,4.4
2019-02-20T23:51:22.976Z,4.4
2019-02-20T23:56:25.459Z,4.4
